sensor_id;sensor_type;location;lat;lon;timestamp;temperature;humidity
35680;DHT22;21803;53.586;10.040;2023-10-31T00:00:16;19.80;55.80
35680;DHT22;21803;53.586;10.040;2023-10-31T00:02:41;19.80;55.80
35680;DHT22;21803;53.586;10.040;2023-10-31T00:05:07;19.80;55.80
35680;DHT22;21803;53.586;10.040;2023-10-31T00:07:33;19.80;55.80
35680;DHT22;21803;53.586;10.040;2023-10-31T00:09:58;19.80;55.80
35680;DHT22;21803;53.586;10.040;2023-10-31T00:12:24;19.80;55.80
35680;DHT22;21803;53.586;10.040;2023-10-31T00:14:49;19.80;55.80
35680;DHT22;21803;53.586;10.040;2023-10-31T00:17:15;19.80;55.80
35680;DHT22;21803;53.586;10.040;2023-10-31T00:19:40;19.80;55.80
35680;DHT22;21803;53.586;10.040;2023-10-31T00:22:06;19.80;55.90
35680;DHT22;21803;53.586;10.040;2023-10-31T00:24:31;19.80;55.80
35680;DHT22;21803;53.586;10.040;2023-10-31T00:26:58;19.80;55.80
35680;DHT22;21803;53.586;10.040;2023-10-31T00:29:23;19.80;55.80
35680;DHT22;21803;53.586;10.040;2023-10-31T00:31:49;19.80;55.90
35680;DHT22;21803;53.586;10.040;2023-10-31T00:34:15;19.80;55.90
35680;DHT22;21803;53.586;10.040;2023-10-31T00:36:40;19.80;55.90
35680;DHT22;21803;53.586;10.040;2023-10-31T00:39:06;19.80;55.90
35680;DHT22;21803;53.586;10.040;2023-10-31T00:41:31;19.80;55.90
35680;DHT22;21803;53.586;10.040;2023-10-31T00:43:57;19.80;55.90
35680;DHT22;21803;53.586;10.040;2023-10-31T00:46:22;19.80;55.90
35680;DHT22;21803;53.586;10.040;2023-10-31T00:48:48;19.80;55.90
35680;DHT22;21803;53.586;10.040;2023-10-31T00:51:13;19.80;55.90
35680;DHT22;21803;53.586;10.040;2023-10-31T00:53:39;19.80;55.90
35680;DHT22;21803;53.586;10.040;2023-10-31T00:56:05;19.80;55.90
35680;DHT22;21803;53.586;10.040;2023-10-31T00:58:30;19.80;55.90
35680;DHT22;21803;53.586;10.040;2023-10-31T01:00:56;19.80;55.90
35680;DHT22;21803;53.586;10.040;2023-10-31T01:03:21;19.80;55.90
35680;DHT22;21803;53.586;10.040;2023-10-31T01:05:47;19.80;55.90
35680;DHT22;21803;53.586;10.040;2023-10-31T01:08:12;19.80;55.90
35680;DHT22;21803;53.586;10.040;2023-10-31T01:10:38;19.80;55.90
35680;DHT22;21803;53.586;10.040;2023-10-31T01:13:03;19.80;55.90
35680;DHT22;21803;53.586;10.040;2023-10-31T01:15:29;19.80;55.90
35680;DHT22;21803;53.586;10.040;2023-10-31T01:17:55;19.80;55.90
35680;DHT22;21803;53.586;10.040;2023-10-31T01:20:20;19.80;55.90
35680;DHT22;21803;53.586;10.040;2023-10-31T01:22:46;19.80;55.90
35680;DHT22;21803;53.586;10.040;2023-10-31T01:25:11;19.80;55.90
35680;DHT22;21803;53.586;10.040;2023-10-31T01:27:37;19.80;55.90
35680;DHT22;21803;53.586;10.040;2023-10-31T01:30:03;19.80;55.90
35680;DHT22;21803;53.586;10.040;2023-10-31T01:32:28;19.80;55.90
35680;DHT22;21803;53.586;10.040;2023-10-31T01:34:54;19.80;55.90
35680;DHT22;21803;53.586;10.040;2023-10-31T01:37:20;19.80;55.90
35680;DHT22;21803;53.586;10.040;2023-10-31T01:39:46;19.80;55.90
35680;DHT22;21803;53.586;10.040;2023-10-31T01:42:15;19.80;55.90
35680;DHT22;21803;53.586;10.040;2023-10-31T01:44:41;19.80;55.90
35680;DHT22;21803;53.586;10.040;2023-10-31T01:47:06;19.80;55.90
35680;DHT22;21803;53.586;10.040;2023-10-31T01:49:32;19.80;55.90
35680;DHT22;21803;53.586;10.040;2023-10-31T01:52:00;19.80;55.90
35680;DHT22;21803;53.586;10.040;2023-10-31T01:54:25;19.80;55.90
35680;DHT22;21803;53.586;10.040;2023-10-31T01:56:52;19.80;55.90
35680;DHT22;21803;53.586;10.040;2023-10-31T01:59:21;19.80;55.90
35680;DHT22;21803;53.586;10.040;2023-10-31T02:01:48;19.80;55.90
35680;DHT22;21803;53.586;10.040;2023-10-31T02:04:14;19.80;55.90
35680;DHT22;21803;53.586;10.040;2023-10-31T02:06:40;19.80;55.90
35680;DHT22;21803;53.586;10.040;2023-10-31T02:09:06;19.80;55.90
35680;DHT22;21803;53.586;10.040;2023-10-31T02:11:32;19.80;55.90
35680;DHT22;21803;53.586;10.040;2023-10-31T02:13:57;19.80;55.90
35680;DHT22;21803;53.586;10.040;2023-10-31T02:16:23;19.80;55.90
35680;DHT22;21803;53.586;10.040;2023-10-31T02:18:48;19.80;55.90
35680;DHT22;21803;53.586;10.040;2023-10-31T02:21:14;19.80;55.90
35680;DHT22;21803;53.586;10.040;2023-10-31T02:23:40;19.80;55.90
35680;DHT22;21803;53.586;10.040;2023-10-31T02:26:06;19.80;55.90
35680;DHT22;21803;53.586;10.040;2023-10-31T02:28:32;19.80;55.90
35680;DHT22;21803;53.586;10.040;2023-10-31T02:30:57;19.80;55.90
35680;DHT22;21803;53.586;10.040;2023-10-31T02:33:23;19.80;55.90
35680;DHT22;21803;53.586;10.040;2023-10-31T02:35:48;19.80;55.90
35680;DHT22;21803;53.586;10.040;2023-10-31T02:38:14;19.80;56.00
35680;DHT22;21803;53.586;10.040;2023-10-31T02:40:39;19.80;55.90
35680;DHT22;21803;53.586;10.040;2023-10-31T02:43:05;19.80;55.90
35680;DHT22;21803;53.586;10.040;2023-10-31T02:45:30;19.80;55.90
35680;DHT22;21803;53.586;10.040;2023-10-31T02:47:56;18.20;55.20
35680;DHT22;21803;53.586;10.040;2023-10-31T02:50:21;19.80;55.90
35680;DHT22;21803;53.586;10.040;2023-10-31T02:52:47;19.80;55.90
35680;DHT22;21803;53.586;10.040;2023-10-31T02:55:12;19.80;55.90
35680;DHT22;21803;53.586;10.040;2023-10-31T02:57:38;19.80;55.90
35680;DHT22;21803;53.586;10.040;2023-10-31T03:00:04;19.80;55.90
35680;DHT22;21803;53.586;10.040;2023-10-31T03:02:30;19.80;55.90
35680;DHT22;21803;53.586;10.040;2023-10-31T03:04:56;19.80;55.90
35680;DHT22;21803;53.586;10.040;2023-10-31T03:07:21;19.80;55.90
35680;DHT22;21803;53.586;10.040;2023-10-31T03:09:46;19.80;55.90
35680;DHT22;21803;53.586;10.040;2023-10-31T03:12:12;19.80;56.00
35680;DHT22;21803;53.586;10.040;2023-10-31T03:14:37;19.80;55.90
35680;DHT22;21803;53.586;10.040;2023-10-31T03:17:03;19.80;56.00
35680;DHT22;21803;53.586;10.040;2023-10-31T03:19:29;19.80;55.90
35680;DHT22;21803;53.586;10.040;2023-10-31T03:21:54;19.80;55.90
35680;DHT22;21803;53.586;10.040;2023-10-31T03:24:20;19.80;56.00
35680;DHT22;21803;53.586;10.040;2023-10-31T03:26:45;19.90;56.00
35680;DHT22;21803;53.586;10.040;2023-10-31T03:29:11;19.80;56.00
35680;DHT22;21803;53.586;10.040;2023-10-31T03:31:36;19.80;56.00
35680;DHT22;21803;53.586;10.040;2023-10-31T03:34:02;19.80;56.00
35680;DHT22;21803;53.586;10.040;2023-10-31T03:36:27;19.80;56.00
35680;DHT22;21803;53.586;10.040;2023-10-31T03:38:53;19.80;56.00
35680;DHT22;21803;53.586;10.040;2023-10-31T03:41:18;19.80;56.00
35680;DHT22;21803;53.586;10.040;2023-10-31T03:43:44;19.80;56.00
35680;DHT22;21803;53.586;10.040;2023-10-31T03:46:09;19.80;56.00
35680;DHT22;21803;53.586;10.040;2023-10-31T03:48:36;19.80;56.00
35680;DHT22;21803;53.586;10.040;2023-10-31T03:51:01;19.80;56.00
35680;DHT22;21803;53.586;10.040;2023-10-31T03:53:27;19.80;56.00
35680;DHT22;21803;53.586;10.040;2023-10-31T03:55:52;19.80;56.00
35680;DHT22;21803;53.586;10.040;2023-10-31T03:58:18;19.80;56.00
35680;DHT22;21803;53.586;10.040;2023-10-31T04:00:44;19.80;56.00
35680;DHT22;21803;53.586;10.040;2023-10-31T04:03:09;19.80;56.00
35680;DHT22;21803;53.586;10.040;2023-10-31T04:05:35;19.90;56.10
35680;DHT22;21803;53.586;10.040;2023-10-31T04:08:01;19.80;56.00
35680;DHT22;21803;53.586;10.040;2023-10-31T04:10:26;19.80;56.00
35680;DHT22;21803;53.586;10.040;2023-10-31T04:12:52;19.80;56.00
35680;DHT22;21803;53.586;10.040;2023-10-31T04:15:18;19.80;56.00
35680;DHT22;21803;53.586;10.040;2023-10-31T04:17:43;19.80;56.00
35680;DHT22;21803;53.586;10.040;2023-10-31T04:20:09;19.80;56.00
35680;DHT22;21803;53.586;10.040;2023-10-31T04:22:34;19.80;56.00
35680;DHT22;21803;53.586;10.040;2023-10-31T04:25:00;19.80;56.00
35680;DHT22;21803;53.586;10.040;2023-10-31T04:27:25;19.80;56.10
35680;DHT22;21803;53.586;10.040;2023-10-31T04:29:51;19.80;56.00
35680;DHT22;21803;53.586;10.040;2023-10-31T04:32:16;19.80;56.10
35680;DHT22;21803;53.586;10.040;2023-10-31T04:34:42;19.80;56.00
35680;DHT22;21803;53.586;10.040;2023-10-31T04:37:07;19.80;56.10
35680;DHT22;21803;53.586;10.040;2023-10-31T04:39:33;19.80;56.70
35680;DHT22;21803;53.586;10.040;2023-10-31T04:41:59;19.80;56.10
35680;DHT22;21803;53.586;10.040;2023-10-31T04:44:24;19.80;56.10
35680;DHT22;21803;53.586;10.040;2023-10-31T04:46:50;19.80;56.10
35680;DHT22;21803;53.586;10.040;2023-10-31T04:49:15;19.80;56.10
35680;DHT22;21803;53.586;10.040;2023-10-31T04:51:41;19.80;56.10
35680;DHT22;21803;53.586;10.040;2023-10-31T04:54:06;19.80;56.10
35680;DHT22;21803;53.586;10.040;2023-10-31T04:56:33;19.80;56.10
35680;DHT22;21803;53.586;10.040;2023-10-31T04:58:58;19.80;56.10
35680;DHT22;21803;53.586;10.040;2023-10-31T05:01:24;19.80;56.10
35680;DHT22;21803;53.586;10.040;2023-10-31T05:03:50;19.80;56.10
35680;DHT22;21803;53.586;10.040;2023-10-31T05:06:20;19.80;56.10
35680;DHT22;21803;53.586;10.040;2023-10-31T05:08:46;19.80;56.10
35680;DHT22;21803;53.586;10.040;2023-10-31T05:11:11;19.80;56.10
35680;DHT22;21803;53.586;10.040;2023-10-31T05:13:38;19.80;56.20
35680;DHT22;21803;53.586;10.040;2023-10-31T05:16:04;19.80;56.10
35680;DHT22;21803;53.586;10.040;2023-10-31T05:18:30;19.80;56.10
35680;DHT22;21803;53.586;10.040;2023-10-31T05:20:55;19.80;56.10
35680;DHT22;21803;53.586;10.040;2023-10-31T05:23:21;19.80;56.10
35680;DHT22;21803;53.586;10.040;2023-10-31T05:25:46;19.80;56.10
35680;DHT22;21803;53.586;10.040;2023-10-31T05:28:12;19.80;56.10
35680;DHT22;21803;53.586;10.040;2023-10-31T05:30:37;19.80;56.10
35680;DHT22;21803;53.586;10.040;2023-10-31T05:33:03;19.80;56.10
35680;DHT22;21803;53.586;10.040;2023-10-31T05:35:28;19.80;56.20
35680;DHT22;21803;53.586;10.040;2023-10-31T05:37:54;19.80;56.10
35680;DHT22;21803;53.586;10.040;2023-10-31T05:40:20;19.80;56.10
35680;DHT22;21803;53.586;10.040;2023-10-31T05:42:49;19.80;56.20
35680;DHT22;21803;53.586;10.040;2023-10-31T05:45:15;19.80;56.20
35680;DHT22;21803;53.586;10.040;2023-10-31T05:47:40;19.80;56.20
35680;DHT22;21803;53.586;10.040;2023-10-31T05:50:07;19.80;56.20
35680;DHT22;21803;53.586;10.040;2023-10-31T05:52:32;19.80;56.20
35680;DHT22;21803;53.586;10.040;2023-10-31T05:54:58;19.80;56.20
35680;DHT22;21803;53.586;10.040;2023-10-31T05:57:24;19.80;56.20
35680;DHT22;21803;53.586;10.040;2023-10-31T05:59:49;19.80;56.20
35680;DHT22;21803;53.586;10.040;2023-10-31T06:02:15;19.80;56.20
35680;DHT22;21803;53.586;10.040;2023-10-31T06:04:41;19.80;56.20
35680;DHT22;21803;53.586;10.040;2023-10-31T06:07:07;19.80;56.20
35680;DHT22;21803;53.586;10.040;2023-10-31T06:09:32;19.80;56.80
35680;DHT22;21803;53.586;10.040;2023-10-31T06:11:59;19.80;56.20
35680;DHT22;21803;53.586;10.040;2023-10-31T06:14:25;19.80;56.20
35680;DHT22;21803;53.586;10.040;2023-10-31T06:16:51;21.20;57.50
35680;DHT22;21803;53.586;10.040;2023-10-31T06:19:16;19.80;56.20
35680;DHT22;21803;53.586;10.040;2023-10-31T06:21:42;19.80;56.20
35680;DHT22;21803;53.586;10.040;2023-10-31T06:24:08;19.80;56.30
35680;DHT22;21803;53.586;10.040;2023-10-31T06:26:33;19.80;56.30
35680;DHT22;21803;53.586;10.040;2023-10-31T06:28:59;19.80;56.20
35680;DHT22;21803;53.586;10.040;2023-10-31T06:31:24;19.90;56.30
35680;DHT22;21803;53.586;10.040;2023-10-31T06:33:50;19.80;56.20
35680;DHT22;21803;53.586;10.040;2023-10-31T06:36:15;19.80;56.30
35680;DHT22;21803;53.586;10.040;2023-10-31T06:38:41;19.80;56.30
35680;DHT22;21803;53.586;10.040;2023-10-31T06:41:07;19.80;56.30
35680;DHT22;21803;53.586;10.040;2023-10-31T06:43:32;19.80;56.30
35680;DHT22;21803;53.586;10.040;2023-10-31T06:45:58;19.80;56.30
35680;DHT22;21803;53.586;10.040;2023-10-31T06:48:25;19.80;56.30
35680;DHT22;21803;53.586;10.040;2023-10-31T06:50:51;19.80;56.30
35680;DHT22;21803;53.586;10.040;2023-10-31T06:53:16;19.80;56.90
35680;DHT22;21803;53.586;10.040;2023-10-31T06:55:42;19.80;56.30
35680;DHT22;21803;53.586;10.040;2023-10-31T06:58:07;19.80;56.30
35680;DHT22;21803;53.586;10.040;2023-10-31T07:00:33;19.80;56.30
35680;DHT22;21803;53.586;10.040;2023-10-31T07:02:59;19.80;56.30
35680;DHT22;21803;53.586;10.040;2023-10-31T07:05:30;19.80;56.30
35680;DHT22;21803;53.586;10.040;2023-10-31T07:07:55;19.80;56.30
35680;DHT22;21803;53.586;10.040;2023-10-31T07:10:21;19.80;56.30
35680;DHT22;21803;53.586;10.040;2023-10-31T07:12:47;19.80;56.30
35680;DHT22;21803;53.586;10.040;2023-10-31T07:15:13;19.80;56.30
35680;DHT22;21803;53.586;10.040;2023-10-31T07:17:38;19.80;56.30
35680;DHT22;21803;53.586;10.040;2023-10-31T07:20:05;19.80;56.40
35680;DHT22;21803;53.586;10.040;2023-10-31T07:22:31;19.80;56.40
35680;DHT22;21803;53.586;10.040;2023-10-31T07:24:57;19.80;56.40
35680;DHT22;21803;53.586;10.040;2023-10-31T07:27:24;19.80;56.40
35680;DHT22;21803;53.586;10.040;2023-10-31T07:29:50;19.80;56.40
35680;DHT22;21803;53.586;10.040;2023-10-31T07:32:15;19.80;56.40
35680;DHT22;21803;53.586;10.040;2023-10-31T07:34:41;19.80;56.40
35680;DHT22;21803;53.586;10.040;2023-10-31T07:37:10;19.80;56.40
35680;DHT22;21803;53.586;10.040;2023-10-31T07:39:35;19.80;56.40
35680;DHT22;21803;53.586;10.040;2023-10-31T07:42:01;19.80;56.40
35680;DHT22;21803;53.586;10.040;2023-10-31T07:44:26;19.80;56.40
35680;DHT22;21803;53.586;10.040;2023-10-31T07:46:52;19.80;56.40
35680;DHT22;21803;53.586;10.040;2023-10-31T07:49:17;19.80;56.50
35680;DHT22;21803;53.586;10.040;2023-10-31T07:51:43;19.80;56.40
35680;DHT22;21803;53.586;10.040;2023-10-31T07:54:08;19.80;56.40
35680;DHT22;21803;53.586;10.040;2023-10-31T07:56:35;19.80;56.40
35680;DHT22;21803;53.586;10.040;2023-10-31T07:59:02;19.80;56.40
35680;DHT22;21803;53.586;10.040;2023-10-31T08:01:27;19.90;56.50
35680;DHT22;21803;53.586;10.040;2023-10-31T08:03:53;19.80;56.50
35680;DHT22;21803;53.586;10.040;2023-10-31T08:06:19;19.90;56.50
35680;DHT22;21803;53.586;10.040;2023-10-31T08:08:45;19.80;56.40
35680;DHT22;21803;53.586;10.040;2023-10-31T08:11:11;19.80;56.40
35680;DHT22;21803;53.586;10.040;2023-10-31T08:13:37;19.80;56.50
35680;DHT22;21803;53.586;10.040;2023-10-31T08:16:07;19.80;56.40
35680;DHT22;21803;53.586;10.040;2023-10-31T08:18:32;19.80;56.50
35680;DHT22;21803;53.586;10.040;2023-10-31T08:20:58;19.80;56.50
35680;DHT22;21803;53.586;10.040;2023-10-31T08:23:25;19.90;56.50
35680;DHT22;21803;53.586;10.040;2023-10-31T08:25:50;19.80;56.40
35680;DHT22;21803;53.586;10.040;2023-10-31T08:28:16;19.90;56.50
35680;DHT22;21803;53.586;10.040;2023-10-31T08:30:41;19.80;56.40
35680;DHT22;21803;53.586;10.040;2023-10-31T08:33:07;19.90;56.50
35680;DHT22;21803;53.586;10.040;2023-10-31T08:35:32;19.90;56.50
35680;DHT22;21803;53.586;10.040;2023-10-31T08:37:58;19.80;56.40
35680;DHT22;21803;53.586;10.040;2023-10-31T08:40:24;19.90;56.50
35680;DHT22;21803;53.586;10.040;2023-10-31T08:42:49;19.90;56.50
35680;DHT22;21803;53.586;10.040;2023-10-31T08:45:15;19.80;56.50
35680;DHT22;21803;53.586;10.040;2023-10-31T08:47:40;19.80;56.50
35680;DHT22;21803;53.586;10.040;2023-10-31T08:50:06;19.80;56.50
35680;DHT22;21803;53.586;10.040;2023-10-31T08:52:34;19.90;56.50
35680;DHT22;21803;53.586;10.040;2023-10-31T08:55:00;19.90;56.50
35680;DHT22;21803;53.586;10.040;2023-10-31T08:57:25;19.90;56.50
35680;DHT22;21803;53.586;10.040;2023-10-31T08:59:51;19.90;56.50
35680;DHT22;21803;53.586;10.040;2023-10-31T09:02:16;19.90;56.50
35680;DHT22;21803;53.586;10.040;2023-10-31T09:04:42;19.90;56.50
35680;DHT22;21803;53.586;10.040;2023-10-31T09:07:07;19.90;56.50
35680;DHT22;21803;53.586;10.040;2023-10-31T09:09:33;19.90;56.50
35680;DHT22;21803;53.586;10.040;2023-10-31T09:11:58;19.80;56.50
35680;DHT22;21803;53.586;10.040;2023-10-31T09:14:24;19.80;56.40
35680;DHT22;21803;53.586;10.040;2023-10-31T09:16:49;19.90;56.50
35680;DHT22;21803;53.586;10.040;2023-10-31T09:19:15;19.90;56.50
35680;DHT22;21803;53.586;10.040;2023-10-31T09:21:40;19.90;56.50
35680;DHT22;21803;53.586;10.040;2023-10-31T09:24:07;19.90;56.50
35680;DHT22;21803;53.586;10.040;2023-10-31T09:26:33;19.90;56.40
35680;DHT22;21803;53.586;10.040;2023-10-31T09:28:59;19.90;56.50
35680;DHT22;21803;53.586;10.040;2023-10-31T09:31:24;19.90;56.40
35680;DHT22;21803;53.586;10.040;2023-10-31T09:33:50;19.90;56.40
35680;DHT22;21803;53.586;10.040;2023-10-31T09:36:15;19.90;56.40
35680;DHT22;21803;53.586;10.040;2023-10-31T09:38:41;19.90;56.40
35680;DHT22;21803;53.586;10.040;2023-10-31T09:41:06;19.80;56.40
35680;DHT22;21803;53.586;10.040;2023-10-31T09:43:32;19.90;56.40
35680;DHT22;21803;53.586;10.040;2023-10-31T09:45:58;19.90;56.40
35680;DHT22;21803;53.586;10.040;2023-10-31T09:48:26;19.90;56.40
35680;DHT22;21803;53.586;10.040;2023-10-31T09:50:52;19.90;56.40
35680;DHT22;21803;53.586;10.040;2023-10-31T09:53:19;19.90;56.40
35680;DHT22;21803;53.586;10.040;2023-10-31T09:55:46;19.90;56.40
35680;DHT22;21803;53.586;10.040;2023-10-31T09:58:12;19.90;56.40
35680;DHT22;21803;53.586;10.040;2023-10-31T10:00:38;19.80;56.40
35680;DHT22;21803;53.586;10.040;2023-10-31T10:03:07;19.90;56.50
35680;DHT22;21803;53.586;10.040;2023-10-31T10:05:35;19.90;56.50
35680;DHT22;21803;53.586;10.040;2023-10-31T10:08:01;19.90;56.40
35680;DHT22;21803;53.586;10.040;2023-10-31T10:10:28;19.90;56.50
35680;DHT22;21803;53.586;10.040;2023-10-31T10:12:55;19.90;56.50
35680;DHT22;21803;53.586;10.040;2023-10-31T10:15:21;19.90;56.40
35680;DHT22;21803;53.586;10.040;2023-10-31T10:17:50;19.90;56.50
35680;DHT22;21803;53.586;10.040;2023-10-31T10:20:16;19.90;56.50
35680;DHT22;21803;53.586;10.040;2023-10-31T10:22:43;19.90;56.50
35680;DHT22;21803;53.586;10.040;2023-10-31T10:25:10;19.90;56.50
35680;DHT22;21803;53.586;10.040;2023-10-31T10:27:44;19.90;56.50
35680;DHT22;21803;53.586;10.040;2023-10-31T10:30:10;19.90;56.40
35680;DHT22;21803;53.586;10.040;2023-10-31T10:32:36;19.90;56.50
35680;DHT22;21803;53.586;10.040;2023-10-31T10:35:02;19.90;56.40
35680;DHT22;21803;53.586;10.040;2023-10-31T10:37:27;19.90;56.50
35680;DHT22;21803;53.586;10.040;2023-10-31T10:39:53;19.90;56.50
35680;DHT22;21803;53.586;10.040;2023-10-31T10:42:45;19.90;56.50
35680;DHT22;21803;53.586;10.040;2023-10-31T10:45:13;19.90;56.50
35680;DHT22;21803;53.586;10.040;2023-10-31T10:47:39;19.90;56.60
35680;DHT22;21803;53.586;10.040;2023-10-31T10:50:06;19.90;56.70
35680;DHT22;21803;53.586;10.040;2023-10-31T10:52:43;19.90;56.70
35680;DHT22;21803;53.586;10.040;2023-10-31T10:55:23;19.90;56.70
35680;DHT22;21803;53.586;10.040;2023-10-31T10:57:56;19.90;57.30
35680;DHT22;21803;53.586;10.040;2023-10-31T11:00:25;19.90;56.80
35680;DHT22;21803;53.586;10.040;2023-10-31T11:02:53;19.90;56.70
35680;DHT22;21803;53.586;10.040;2023-10-31T11:05:19;19.90;56.70
35680;DHT22;21803;53.586;10.040;2023-10-31T11:07:45;19.90;56.70
35680;DHT22;21803;53.586;10.040;2023-10-31T11:10:11;19.90;56.70
35680;DHT22;21803;53.586;10.040;2023-10-31T11:12:37;19.90;56.70
35680;DHT22;21803;53.586;10.040;2023-10-31T11:15:05;19.90;56.70
35680;DHT22;21803;53.586;10.040;2023-10-31T11:17:34;19.90;56.70
35680;DHT22;21803;53.586;10.040;2023-10-31T11:20:01;19.90;56.70
35680;DHT22;21803;53.586;10.040;2023-10-31T11:22:38;19.90;56.70
35680;DHT22;21803;53.586;10.040;2023-10-31T11:25:06;19.90;56.70
35680;DHT22;21803;53.586;10.040;2023-10-31T11:27:34;19.90;56.70
35680;DHT22;21803;53.586;10.040;2023-10-31T11:30:00;19.90;56.70
35680;DHT22;21803;53.586;10.040;2023-10-31T11:32:26;19.90;56.70
35680;DHT22;21803;53.586;10.040;2023-10-31T11:34:52;19.90;56.70
35680;DHT22;21803;53.586;10.040;2023-10-31T11:37:24;19.90;56.70
35680;DHT22;21803;53.586;10.040;2023-10-31T11:40:17;19.90;56.70
35680;DHT22;21803;53.586;10.040;2023-10-31T11:42:53;19.90;56.70
35680;DHT22;21803;53.586;10.040;2023-10-31T11:45:44;19.90;56.60
35680;DHT22;21803;53.586;10.040;2023-10-31T11:48:12;19.90;56.60
35680;DHT22;21803;53.586;10.040;2023-10-31T11:50:38;19.90;56.60
35680;DHT22;21803;53.586;10.040;2023-10-31T11:53:12;19.90;56.60
35680;DHT22;21803;53.586;10.040;2023-10-31T11:55:45;19.90;56.60
35680;DHT22;21803;53.586;10.040;2023-10-31T12:00:44;19.90;56.60
35680;DHT22;21803;53.586;10.040;2023-10-31T12:03:10;19.90;56.60
35680;DHT22;21803;53.586;10.040;2023-10-31T12:05:36;19.90;56.60
35680;DHT22;21803;53.586;10.040;2023-10-31T12:08:01;19.90;56.60
35680;DHT22;21803;53.586;10.040;2023-10-31T12:10:28;19.90;56.70
35680;DHT22;21803;53.586;10.040;2023-10-31T12:12:56;19.90;57.40
35680;DHT22;21803;53.586;10.040;2023-10-31T12:15:22;19.90;57.70
35680;DHT22;21803;53.586;10.040;2023-10-31T12:17:48;19.90;57.80
35680;DHT22;21803;53.586;10.040;2023-10-31T12:20:14;20.00;58.00
35680;DHT22;21803;53.586;10.040;2023-10-31T12:22:41;20.00;58.00
35680;DHT22;21803;53.586;10.040;2023-10-31T12:25:08;20.00;58.00
35680;DHT22;21803;53.586;10.040;2023-10-31T12:27:50;20.00;58.00
35680;DHT22;21803;53.586;10.040;2023-10-31T12:30:18;20.00;58.00
35680;DHT22;21803;53.586;10.040;2023-10-31T12:32:45;21.00;58.40
35680;DHT22;21803;53.586;10.040;2023-10-31T12:35:13;20.00;58.00
35680;DHT22;21803;53.586;10.040;2023-10-31T12:37:44;20.10;58.10
35680;DHT22;21803;53.586;10.040;2023-10-31T12:40:12;20.10;58.20
35680;DHT22;21803;53.586;10.040;2023-10-31T12:42:38;20.00;58.10
35680;DHT22;21803;53.586;10.040;2023-10-31T12:45:05;20.00;58.20
35680;DHT22;21803;53.586;10.040;2023-10-31T12:47:31;20.10;58.30
35680;DHT22;21803;53.586;10.040;2023-10-31T12:50:13;20.10;58.30
35680;DHT22;21803;53.586;10.040;2023-10-31T12:55:15;20.10;59.00
35680;DHT22;21803;53.586;10.040;2023-10-31T12:57:41;20.10;58.40
35680;DHT22;21803;53.586;10.040;2023-10-31T13:00:07;20.10;58.50
35680;DHT22;21803;53.586;10.040;2023-10-31T13:02:36;20.10;58.50
35680;DHT22;21803;53.586;10.040;2023-10-31T13:05:12;20.10;58.50
35680;DHT22;21803;53.586;10.040;2023-10-31T13:07:39;20.10;58.60
35680;DHT22;21803;53.586;10.040;2023-10-31T13:10:05;20.10;58.60
35680;DHT22;21803;53.586;10.040;2023-10-31T13:12:31;20.10;58.60
35680;DHT22;21803;53.586;10.040;2023-10-31T13:14:57;20.10;58.70
35680;DHT22;21803;53.586;10.040;2023-10-31T13:17:22;20.10;58.70
35680;DHT22;21803;53.586;10.040;2023-10-31T13:19:48;20.10;58.70
35680;DHT22;21803;53.586;10.040;2023-10-31T13:22:13;20.10;58.80
35680;DHT22;21803;53.586;10.040;2023-10-31T13:24:39;20.10;58.80
35680;DHT22;21803;53.586;10.040;2023-10-31T13:27:06;20.10;58.70
35680;DHT22;21803;53.586;10.040;2023-10-31T13:29:31;20.10;58.60
35680;DHT22;21803;53.586;10.040;2023-10-31T13:31:58;20.10;58.40
35680;DHT22;21803;53.586;10.040;2023-10-31T13:34:24;20.10;58.40
35680;DHT22;21803;53.586;10.040;2023-10-31T13:36:49;20.10;58.30
35680;DHT22;21803;53.586;10.040;2023-10-31T13:39:15;20.10;58.20
35680;DHT22;21803;53.586;10.040;2023-10-31T13:41:40;20.10;58.10
35680;DHT22;21803;53.586;10.040;2023-10-31T13:44:06;20.10;58.10
35680;DHT22;21803;53.586;10.040;2023-10-31T13:46:31;20.10;58.10
35680;DHT22;21803;53.586;10.040;2023-10-31T13:48:57;20.10;58.00
35680;DHT22;21803;53.586;10.040;2023-10-31T13:51:22;20.10;58.10
35680;DHT22;21803;53.586;10.040;2023-10-31T13:53:48;20.10;58.30
35680;DHT22;21803;53.586;10.040;2023-10-31T13:56:15;20.10;58.50
35680;DHT22;21803;53.586;10.040;2023-10-31T13:58:41;20.10;58.70
35680;DHT22;21803;53.586;10.040;2023-10-31T14:01:06;20.10;58.70
35680;DHT22;21803;53.586;10.040;2023-10-31T14:03:32;20.10;58.70
35680;DHT22;21803;53.586;10.040;2023-10-31T14:05:57;20.10;58.60
35680;DHT22;21803;53.586;10.040;2023-10-31T14:08:23;20.10;58.50
35680;DHT22;21803;53.586;10.040;2023-10-31T14:10:48;20.20;59.00
35680;DHT22;21803;53.586;10.040;2023-10-31T14:13:14;20.20;59.00
35680;DHT22;21803;53.586;10.040;2023-10-31T14:15:39;20.20;59.10
35680;DHT22;21803;53.586;10.040;2023-10-31T14:18:06;20.20;59.10
35680;DHT22;21803;53.586;10.040;2023-10-31T14:20:33;20.20;59.70
35680;DHT22;21803;53.586;10.040;2023-10-31T14:22:58;20.20;59.60
35680;DHT22;21803;53.586;10.040;2023-10-31T14:25:24;20.20;60.00
35680;DHT22;21803;53.586;10.040;2023-10-31T14:27:49;19.20;59.20
35680;DHT22;21803;53.586;10.040;2023-10-31T14:30:15;20.50;59.80
35680;DHT22;21803;53.586;10.040;2023-10-31T14:32:41;20.20;59.50
35680;DHT22;21803;53.586;10.040;2023-10-31T14:35:07;20.20;59.40
35680;DHT22;21803;53.586;10.040;2023-10-31T14:37:34;20.20;59.50
35680;DHT22;21803;53.586;10.040;2023-10-31T14:40:00;20.20;59.50
35680;DHT22;21803;53.586;10.040;2023-10-31T14:42:28;20.20;59.60
35680;DHT22;21803;53.586;10.040;2023-10-31T14:44:53;20.20;59.60
35680;DHT22;21803;53.586;10.040;2023-10-31T14:47:21;20.20;59.60
35680;DHT22;21803;53.586;10.040;2023-10-31T14:49:47;20.20;59.60
35680;DHT22;21803;53.586;10.040;2023-10-31T14:52:12;20.20;59.60
35680;DHT22;21803;53.586;10.040;2023-10-31T14:54:39;20.20;59.60
35680;DHT22;21803;53.586;10.040;2023-10-31T14:57:04;20.20;59.80
35680;DHT22;21803;53.586;10.040;2023-10-31T14:59:30;20.20;59.40
35680;DHT22;21803;53.586;10.040;2023-10-31T15:01:55;20.20;59.30
35680;DHT22;21803;53.586;10.040;2023-10-31T15:04:21;20.20;59.50
35680;DHT22;21803;53.586;10.040;2023-10-31T15:06:46;20.10;59.40
35680;DHT22;21803;53.586;10.040;2023-10-31T15:09:12;20.10;59.40
35680;DHT22;21803;53.586;10.040;2023-10-31T15:11:38;20.10;59.30
35680;DHT22;21803;53.586;10.040;2023-10-31T15:14:04;20.10;59.30